Página principal
METAR-TAF:

METAR-TAF

Aeroportos :

Longyearbyen, Noruega

latitude: 78-15N, longitude: 015-28E, altura: 2 m

Observação actual do tempo

O boletim foi feito há 48 minutos, às 20:50 UTC
Vento 9 kt de sudoeste
Temperatura 5°C
Humidade 75%
Pressão 1006 hPa
Visibilidade 10 km ou mais
Nuvens fragmentadasa uma altura de 1600 ft

METAR: ENSB 252050Z 22009KT 9999 BKN016 05/01 Q1006 RMK WIND 1400FT 22010KT

Hora: 23:38 (21:38 UTC)

Previsão

Previsão válida de 25 às 18 UTC a 26 às 18 UTC
Vento 9 kt de oeste
Visibilidade 10 km ou mais
Poucas nuvensa uma altura de 1000 ft
Nuvens fragmentadasa uma altura de 2000 ft
Probabilidade 30% :
Temporariamente
de 26 às 12 UTC a 26 às 18 UTC
Visibilidade: 4000 m
Nuvens fragmentadasa uma altura de 1400 ft
chuvisco fraco, chuva

TAF: ENSB 2518/2618 26009KT 9999 FEW010 BKN020 PROB30 TEMPO 2612/2618 4000 -DZRA BKN014

Observações e previsões do tempo de mais de 4000 aeroportos (mensagens METAR e TAF).

As estações disponíveis são os pontos amarelos e vermelhos sobre o mapa.

Mova o rato sobre o mapa para ver o nome da estação.

Depois clique no ponto para visualizar as observações e previsões meteorológicas.

Para alterar o mapa : clique nos botões verdes com uma cruz preta para aumentar o zoom; no botão verde com uma pitada de zoom; ou nas setas verdes para mapas adjacentes.


METAR-TAF: